EGXP

RAF Scampton Airport

Scampton, United Kingdom
METAR EGXP 131050Z AUTO 12010KT 9999 // BKN034/// 05/01 Q1019
Observed Flight Rules
Dec-13 @ 10:50 UTC (60 minutes ago) Visual Flight Rules
Wind Visibility Clouds
120° at 10 knots 10,000+ meters
  • Broken at 3,400' AGL
Temperatures Readings
Current 5°C / 41°F
Dewpoint 1°C / 34°F
Humidity 76%
Altimeter 30.09" Hg
Pressure 1019 hPa
Elevation 61
METAR EGXP 131050Z AUTO 12010KT 9999 // BKN034/// 05/01 Q1019
Observed Flight Rules
Dec-13 @ 10:50 UTC
(60 minutes ago)
VFR
Wind Visibility
120° at 10 knots 10,000+ meters
Clouds
  • Broken at 3,400' AGL
Temperature Dewpoint
5°C / 41°F 1°C / 34°F
Humidity Altimeter Pressure
76% 30.09" Hg 1019 hPa